sensor_id;sensor_type;location;lat;lon;timestamp;temperature;humidity
38223;DHT22;24024;51.186;6.458;2023-11-21T00:00:17;13.60;68.90
38223;DHT22;24024;51.186;6.458;2023-11-21T00:02:44;13.50;69.00
38223;DHT22;24024;51.186;6.458;2023-11-21T00:05:14;13.40;69.40
38223;DHT22;24024;51.186;6.458;2023-11-21T00:07:42;13.30;69.30
38223;DHT22;24024;51.186;6.458;2023-11-21T00:10:09;13.40;69.20
38223;DHT22;24024;51.186;6.458;2023-11-21T00:12:40;13.30;69.20
38223;DHT22;24024;51.186;6.458;2023-11-21T00:15:13;13.30;69.20
38223;DHT22;24024;51.186;6.458;2023-11-21T00:17:43;13.10;69.60
38223;DHT22;24024;51.186;6.458;2023-11-21T00:20:13;13.10;69.80
38223;DHT22;24024;51.186;6.458;2023-11-21T00:22:41;12.90;70.00
38223;DHT22;24024;51.186;6.458;2023-11-21T00:25:08;12.80;70.40
38223;DHT22;24024;51.186;6.458;2023-11-21T00:27:36;12.80;70.70
38223;DHT22;24024;51.186;6.458;2023-11-21T00:30:03;12.80;71.00
38223;DHT22;24024;51.186;6.458;2023-11-21T00:32:40;12.90;70.80
38223;DHT22;24024;51.186;6.458;2023-11-21T00:35:07;12.80;70.60
38223;DHT22;24024;51.186;6.458;2023-11-21T00:37:34;12.90;70.60
38223;DHT22;24024;51.186;6.458;2023-11-21T00:40:01;12.90;70.90
38223;DHT22;24024;51.186;6.458;2023-11-21T00:42:36;12.90;70.80
38223;DHT22;24024;51.186;6.458;2023-11-21T00:45:03;13.00;70.60
38223;DHT22;24024;51.186;6.458;2023-11-21T00:47:33;13.00;70.40
38223;DHT22;24024;51.186;6.458;2023-11-21T00:50:02;13.00;70.50
38223;DHT22;24024;51.186;6.458;2023-11-21T00:52:32;13.10;70.20
38223;DHT22;24024;51.186;6.458;2023-11-21T00:54:58;13.10;70.10
38223;DHT22;24024;51.186;6.458;2023-11-21T00:57:29;13.10;69.80
38223;DHT22;24024;51.186;6.458;2023-11-21T00:59:55;13.10;70.00
38223;DHT22;24024;51.186;6.458;2023-11-21T01:02:22;13.10;70.10
38223;DHT22;24024;51.186;6.458;2023-11-21T01:04:51;13.10;70.40
38223;DHT22;24024;51.186;6.458;2023-11-21T01:07:21;13.20;70.60
38223;DHT22;24024;51.186;6.458;2023-11-21T01:09:49;13.30;70.20
38223;DHT22;24024;51.186;6.458;2023-11-21T01:12:18;13.30;69.70
38223;DHT22;24024;51.186;6.458;2023-11-21T01:14:47;13.30;69.80
38223;DHT22;24024;51.186;6.458;2023-11-21T01:17:16;13.40;69.10
38223;DHT22;24024;51.186;6.458;2023-11-21T01:19:46;13.40;69.10
38223;DHT22;24024;51.186;6.458;2023-11-21T01:22:12;13.40;69.20
38223;DHT22;24024;51.186;6.458;2023-11-21T01:24:48;13.40;69.30
38223;DHT22;24024;51.186;6.458;2023-11-21T01:27:17;13.30;69.30
38223;DHT22;24024;51.186;6.458;2023-11-21T01:29:44;13.30;69.60
38223;DHT22;24024;51.186;6.458;2023-11-21T01:32:11;13.30;69.60
38223;DHT22;24024;51.186;6.458;2023-11-21T01:34:40;13.30;69.80
38223;DHT22;24024;51.186;6.458;2023-11-21T01:37:07;13.30;69.90
38223;DHT22;24024;51.186;6.458;2023-11-21T01:39:34;13.30;69.80
38223;DHT22;24024;51.186;6.458;2023-11-21T01:42:00;13.20;69.90
38223;DHT22;24024;51.186;6.458;2023-11-21T01:44:27;13.20;70.10
38223;DHT22;24024;51.186;6.458;2023-11-21T01:46:54;13.20;70.10
38223;DHT22;24024;51.186;6.458;2023-11-21T01:49:23;13.10;70.20
38223;DHT22;24024;51.186;6.458;2023-11-21T01:51:50;13.10;70.60
38223;DHT22;24024;51.186;6.458;2023-11-21T01:54:19;13.00;70.70
38223;DHT22;24024;51.186;6.458;2023-11-21T01:56:47;12.90;71.20
38223;DHT22;24024;51.186;6.458;2023-11-21T01:59:18;12.70;71.40
38223;DHT22;24024;51.186;6.458;2023-11-21T02:01:46;12.60;71.60
38223;DHT22;24024;51.186;6.458;2023-11-21T02:04:13;12.70;71.80
38223;DHT22;24024;51.186;6.458;2023-11-21T02:06:41;12.90;71.50
38223;DHT22;24024;51.186;6.458;2023-11-21T02:09:07;12.80;71.80
38223;DHT22;24024;51.186;6.458;2023-11-21T02:11:35;12.90;71.60
38223;DHT22;24024;51.186;6.458;2023-11-21T02:14:02;12.90;71.30
38223;DHT22;24024;51.186;6.458;2023-11-21T02:16:32;13.00;71.10
38223;DHT22;24024;51.186;6.458;2023-11-21T02:19:00;13.00;71.30
38223;DHT22;24024;51.186;6.458;2023-11-21T02:21:32;12.90;71.40
38223;DHT22;24024;51.186;6.458;2023-11-21T02:23:59;13.00;71.30
38223;DHT22;24024;51.186;6.458;2023-11-21T02:26:26;13.10;70.80
38223;DHT22;24024;51.186;6.458;2023-11-21T02:28:55;13.10;70.70
38223;DHT22;24024;51.186;6.458;2023-11-21T02:31:24;13.10;70.70
38223;DHT22;24024;51.186;6.458;2023-11-21T02:33:56;13.10;70.70
38223;DHT22;24024;51.186;6.458;2023-11-21T02:36:22;13.10;70.60
38223;DHT22;24024;51.186;6.458;2023-11-21T02:38:50;12.90;70.60
38223;DHT22;24024;51.186;6.458;2023-11-21T02:41:18;12.80;71.40
38223;DHT22;24024;51.186;6.458;2023-11-21T02:43:45;12.90;71.20
38223;DHT22;24024;51.186;6.458;2023-11-21T02:46:12;12.90;71.50
38223;DHT22;24024;51.186;6.458;2023-11-21T02:48:38;12.90;71.50
38223;DHT22;24024;51.186;6.458;2023-11-21T02:51:05;13.00;71.10
38223;DHT22;24024;51.186;6.458;2023-11-21T02:53:32;13.10;70.90
38223;DHT22;24024;51.186;6.458;2023-11-21T02:56:06;13.00;71.00
38223;DHT22;24024;51.186;6.458;2023-11-21T02:58:33;13.00;71.00
38223;DHT22;24024;51.186;6.458;2023-11-21T03:01:00;13.00;71.10
38223;DHT22;24024;51.186;6.458;2023-11-21T03:03:27;13.00;71.30
38223;DHT22;24024;51.186;6.458;2023-11-21T03:05:54;13.00;71.10
38223;DHT22;24024;51.186;6.458;2023-11-21T03:08:23;13.00;71.40
38223;DHT22;24024;51.186;6.458;2023-11-21T03:10:49;13.10;70.80
38223;DHT22;24024;51.186;6.458;2023-11-21T03:13:16;13.20;70.40
38223;DHT22;24024;51.186;6.458;2023-11-21T03:15:43;13.10;70.40
38223;DHT22;24024;51.186;6.458;2023-11-21T03:18:15;13.20;70.40
38223;DHT22;24024;51.186;6.458;2023-11-21T03:20:44;13.20;70.40
38223;DHT22;24024;51.186;6.458;2023-11-21T03:23:16;13.20;70.30
38223;DHT22;24024;51.186;6.458;2023-11-21T03:25:45;13.10;70.50
38223;DHT22;24024;51.186;6.458;2023-11-21T03:28:14;13.10;70.60
38223;DHT22;24024;51.186;6.458;2023-11-21T03:30:41;13.10;70.70
38223;DHT22;24024;51.186;6.458;2023-11-21T03:33:08;13.10;70.70
38223;DHT22;24024;51.186;6.458;2023-11-21T03:35:34;13.30;70.20
38223;DHT22;24024;51.186;6.458;2023-11-21T03:38:01;13.30;69.70
38223;DHT22;24024;51.186;6.458;2023-11-21T03:40:30;13.20;69.90
38223;DHT22;24024;51.186;6.458;2023-11-21T03:42:58;13.30;69.80
38223;DHT22;24024;51.186;6.458;2023-11-21T03:45:25;13.20;69.80
38223;DHT22;24024;51.186;6.458;2023-11-21T03:47:51;13.10;70.10
38223;DHT22;24024;51.186;6.458;2023-11-21T03:50:18;13.10;70.60
38223;DHT22;24024;51.186;6.458;2023-11-21T03:52:50;12.90;71.00
38223;DHT22;24024;51.186;6.458;2023-11-21T03:55:21;12.80;71.60
38223;DHT22;24024;51.186;6.458;2023-11-21T03:57:50;12.70;71.80
38223;DHT22;24024;51.186;6.458;2023-11-21T04:00:17;12.80;71.80
38223;DHT22;24024;51.186;6.458;2023-11-21T04:02:45;12.60;71.90
38223;DHT22;24024;51.186;6.458;2023-11-21T04:05:14;12.70;72.10
38223;DHT22;24024;51.186;6.458;2023-11-21T04:07:41;12.80;71.80
38223;DHT22;24024;51.186;6.458;2023-11-21T04:10:11;12.80;71.80
38223;DHT22;24024;51.186;6.458;2023-11-21T04:12:39;12.80;72.00
38223;DHT22;24024;51.186;6.458;2023-11-21T04:15:07;12.80;72.00
38223;DHT22;24024;51.186;6.458;2023-11-21T04:17:35;12.90;71.80
38223;DHT22;24024;51.186;6.458;2023-11-21T04:20:04;12.60;71.90
38223;DHT22;24024;51.186;6.458;2023-11-21T04:22:41;12.80;71.90
38223;DHT22;24024;51.186;6.458;2023-11-21T04:25:11;12.80;71.90
38223;DHT22;24024;51.186;6.458;2023-11-21T04:27:45;12.80;71.40
38223;DHT22;24024;51.186;6.458;2023-11-21T04:30:13;12.80;71.60
38223;DHT22;24024;51.186;6.458;2023-11-21T04:32:43;12.80;71.20
38223;DHT22;24024;51.186;6.458;2023-11-21T04:35:12;12.60;71.90
38223;DHT22;24024;51.186;6.458;2023-11-21T04:37:41;12.60;71.80
38223;DHT22;24024;51.186;6.458;2023-11-21T04:40:11;12.20;73.00
38223;DHT22;24024;51.186;6.458;2023-11-21T04:42:38;12.20;73.40
38223;DHT22;24024;51.186;6.458;2023-11-21T04:45:06;12.40;72.70
38223;DHT22;24024;51.186;6.458;2023-11-21T04:47:36;12.30;72.90
38223;DHT22;24024;51.186;6.458;2023-11-21T04:50:08;12.30;72.80
38223;DHT22;24024;51.186;6.458;2023-11-21T04:52:37;12.40;73.00
38223;DHT22;24024;51.186;6.458;2023-11-21T04:55:06;12.30;72.70
38223;DHT22;24024;51.186;6.458;2023-11-21T04:57:37;12.60;72.20
38223;DHT22;24024;51.186;6.458;2023-11-21T05:00:04;12.60;72.00
38223;DHT22;24024;51.186;6.458;2023-11-21T05:02:33;12.70;71.60
38223;DHT22;24024;51.186;6.458;2023-11-21T05:05:05;12.80;71.30
38223;DHT22;24024;51.186;6.458;2023-11-21T05:07:33;12.80;71.30
38223;DHT22;24024;51.186;6.458;2023-11-21T05:10:03;12.80;71.30
38223;DHT22;24024;51.186;6.458;2023-11-21T05:12:31;12.80;71.30
38223;DHT22;24024;51.186;6.458;2023-11-21T05:15:05;12.80;71.50
38223;DHT22;24024;51.186;6.458;2023-11-21T05:17:34;12.80;71.60
38223;DHT22;24024;51.186;6.458;2023-11-21T05:20:04;12.70;71.70
38223;DHT22;24024;51.186;6.458;2023-11-21T05:22:35;12.70;72.00
38223;DHT22;24024;51.186;6.458;2023-11-21T05:25:03;12.80;72.00
38223;DHT22;24024;51.186;6.458;2023-11-21T05:27:35;12.50;72.30
38223;DHT22;24024;51.186;6.458;2023-11-21T05:30:02;12.50;72.10
38223;DHT22;24024;51.186;6.458;2023-11-21T05:32:34;12.60;72.30
38223;DHT22;24024;51.186;6.458;2023-11-21T05:35:01;12.70;71.80
38223;DHT22;24024;51.186;6.458;2023-11-21T05:37:28;12.70;71.70
38223;DHT22;24024;51.186;6.458;2023-11-21T05:39:55;12.80;71.50
38223;DHT22;24024;51.186;6.458;2023-11-21T05:42:31;12.80;71.50
38223;DHT22;24024;51.186;6.458;2023-11-21T05:44:58;12.70;71.90
38223;DHT22;24024;51.186;6.458;2023-11-21T05:47:41;12.80;71.80
38223;DHT22;24024;51.186;6.458;2023-11-21T05:50:09;12.80;71.60
38223;DHT22;24024;51.186;6.458;2023-11-21T05:52:38;12.50;72.60
38223;DHT22;24024;51.186;6.458;2023-11-21T05:55:08;12.60;72.40
38223;DHT22;24024;51.186;6.458;2023-11-21T05:57:36;12.60;72.30
38223;DHT22;24024;51.186;6.458;2023-11-21T06:00:11;12.70;72.20
38223;DHT22;24024;51.186;6.458;2023-11-21T06:02:53;12.70;71.90
38223;DHT22;24024;51.186;6.458;2023-11-21T06:05:26;12.70;71.90
38223;DHT22;24024;51.186;6.458;2023-11-21T06:07:54;12.80;71.40
38223;DHT22;24024;51.186;6.458;2023-11-21T06:10:22;12.90;71.40
38223;DHT22;24024;51.186;6.458;2023-11-21T06:12:51;13.00;71.10
38223;DHT22;24024;51.186;6.458;2023-11-21T06:15:18;13.00;71.00
38223;DHT22;24024;51.186;6.458;2023-11-21T06:17:46;12.70;71.10
38223;DHT22;24024;51.186;6.458;2023-11-21T06:20:16;12.90;71.50
38223;DHT22;24024;51.186;6.458;2023-11-21T06:22:46;13.00;71.00
38223;DHT22;24024;51.186;6.458;2023-11-21T06:25:14;13.00;71.00
38223;DHT22;24024;51.186;6.458;2023-11-21T06:27:42;13.10;71.10
38223;DHT22;24024;51.186;6.458;2023-11-21T06:30:12;13.00;70.90
38223;DHT22;24024;51.186;6.458;2023-11-21T06:32:42;12.80;71.60
38223;DHT22;24024;51.186;6.458;2023-11-21T06:35:16;12.80;71.60
38223;DHT22;24024;51.186;6.458;2023-11-21T06:37:45;12.60;71.70
38223;DHT22;24024;51.186;6.458;2023-11-21T06:40:15;12.70;71.90
38223;DHT22;24024;51.186;6.458;2023-11-21T06:42:45;12.80;71.70
38223;DHT22;24024;51.186;6.458;2023-11-21T06:45:12;12.70;71.70
38223;DHT22;24024;51.186;6.458;2023-11-21T06:47:39;12.70;72.10
38223;DHT22;24024;51.186;6.458;2023-11-21T06:50:09;12.60;72.20
38223;DHT22;24024;51.186;6.458;2023-11-21T06:52:38;12.50;72.20
38223;DHT22;24024;51.186;6.458;2023-11-21T06:55:05;12.60;72.80
38223;DHT22;24024;51.186;6.458;2023-11-21T06:57:36;12.30;73.00
38223;DHT22;24024;51.186;6.458;2023-11-21T07:00:03;12.40;73.30
38223;DHT22;24024;51.186;6.458;2023-11-21T07:02:32;12.20;73.70
38223;DHT22;24024;51.186;6.458;2023-11-21T07:05:01;12.30;73.80
38223;DHT22;24024;51.186;6.458;2023-11-21T07:07:30;12.20;73.90
38223;DHT22;24024;51.186;6.458;2023-11-21T07:10:02;12.00;74.40
38223;DHT22;24024;51.186;6.458;2023-11-21T07:12:30;11.90;75.20
38223;DHT22;24024;51.186;6.458;2023-11-21T07:15:00;12.10;74.80
38223;DHT22;24024;51.186;6.458;2023-11-21T07:17:27;12.00;75.10
38223;DHT22;24024;51.186;6.458;2023-11-21T07:19:56;12.00;75.10
38223;DHT22;24024;51.186;6.458;2023-11-21T07:22:23;11.90;75.20
38223;DHT22;24024;51.186;6.458;2023-11-21T07:24:50;11.80;75.40
38223;DHT22;24024;51.186;6.458;2023-11-21T07:27:20;11.70;76.00
38223;DHT22;24024;51.186;6.458;2023-11-21T07:29:47;11.80;76.00
38223;DHT22;24024;51.186;6.458;2023-11-21T07:32:16;11.80;75.70
38223;DHT22;24024;51.186;6.458;2023-11-21T07:34:43;11.80;75.90
38223;DHT22;24024;51.186;6.458;2023-11-21T07:37:12;11.90;75.50
38223;DHT22;24024;51.186;6.458;2023-11-21T07:39:39;12.00;75.10
38223;DHT22;24024;51.186;6.458;2023-11-21T07:42:08;12.00;75.40
38223;DHT22;24024;51.186;6.458;2023-11-21T07:44:38;11.90;75.20
38223;DHT22;24024;51.186;6.458;2023-11-21T07:47:05;12.00;75.40
38223;DHT22;24024;51.186;6.458;2023-11-21T07:49:32;12.00;75.50
38223;DHT22;24024;51.186;6.458;2023-11-21T07:51:58;12.10;75.20
38223;DHT22;24024;51.186;6.458;2023-11-21T07:54:25;12.20;74.70
38223;DHT22;24024;51.186;6.458;2023-11-21T07:56:54;12.40;74.30
38223;DHT22;24024;51.186;6.458;2023-11-21T07:59:21;12.40;74.40
38223;DHT22;24024;51.186;6.458;2023-11-21T08:01:47;12.40;74.10
38223;DHT22;24024;51.186;6.458;2023-11-21T08:04:14;12.30;74.30
38223;DHT22;24024;51.186;6.458;2023-11-21T08:06:41;12.10;74.70
38223;DHT22;24024;51.186;6.458;2023-11-21T08:09:08;12.20;74.80
38223;DHT22;24024;51.186;6.458;2023-11-21T08:11:35;12.30;74.80
38223;DHT22;24024;51.186;6.458;2023-11-21T08:14:04;12.30;74.20
38223;DHT22;24024;51.186;6.458;2023-11-21T08:16:35;12.20;75.10
38223;DHT22;24024;51.186;6.458;2023-11-21T08:19:02;12.20;75.10
38223;DHT22;24024;51.186;6.458;2023-11-21T08:21:29;12.10;75.50
38223;DHT22;24024;51.186;6.458;2023-11-21T08:23:56;12.30;75.10
38223;DHT22;24024;51.186;6.458;2023-11-21T08:26:23;12.10;75.50
38223;DHT22;24024;51.186;6.458;2023-11-21T08:28:50;12.20;75.60
38223;DHT22;24024;51.186;6.458;2023-11-21T08:31:25;12.10;75.70
38223;DHT22;24024;51.186;6.458;2023-11-21T08:33:52;12.00;76.30
38223;DHT22;24024;51.186;6.458;2023-11-21T08:36:22;12.10;76.10
38223;DHT22;24024;51.186;6.458;2023-11-21T08:38:51;12.30;75.50
38223;DHT22;24024;51.186;6.458;2023-11-21T08:41:22;12.40;75.10
38223;DHT22;24024;51.186;6.458;2023-11-21T08:43:51;12.50;75.10
38223;DHT22;24024;51.186;6.458;2023-11-21T08:46:22;12.40;75.00
38223;DHT22;24024;51.186;6.458;2023-11-21T08:48:49;12.50;74.80
38223;DHT22;24024;51.186;6.458;2023-11-21T08:51:19;12.60;74.90
38223;DHT22;24024;51.186;6.458;2023-11-21T08:53:45;12.60;74.80
38223;DHT22;24024;51.186;6.458;2023-11-21T08:56:13;12.50;75.00
38223;DHT22;24024;51.186;6.458;2023-11-21T08:58:45;12.60;74.70
38223;DHT22;24024;51.186;6.458;2023-11-21T09:01:12;12.70;74.30
38223;DHT22;24024;51.186;6.458;2023-11-21T09:03:41;12.80;74.20
38223;DHT22;24024;51.186;6.458;2023-11-21T09:06:16;12.80;74.00
38223;DHT22;24024;51.186;6.458;2023-11-21T09:08:48;12.80;74.00
38223;DHT22;24024;51.186;6.458;2023-11-21T09:11:17;12.80;73.90
38223;DHT22;24024;51.186;6.458;2023-11-21T09:13:45;12.90;73.90
38223;DHT22;24024;51.186;6.458;2023-11-21T09:16:14;12.80;74.30
38223;DHT22;24024;51.186;6.458;2023-11-21T09:18:42;12.80;74.20
38223;DHT22;24024;51.186;6.458;2023-11-21T09:21:09;12.90;73.80
38223;DHT22;24024;51.186;6.458;2023-11-21T09:23:36;12.90;73.80
38223;DHT22;24024;51.186;6.458;2023-11-21T09:26:05;13.00;73.60
38223;DHT22;24024;51.186;6.458;2023-11-21T09:28:32;13.00;73.50
38223;DHT22;24024;51.186;6.458;2023-11-21T09:30:59;13.10;73.20
38223;DHT22;24024;51.186;6.458;2023-11-21T09:33:29;13.10;73.30
38223;DHT22;24024;51.186;6.458;2023-11-21T09:35:57;13.10;73.30
38223;DHT22;24024;51.186;6.458;2023-11-21T09:38:24;13.10;73.10
38223;DHT22;24024;51.186;6.458;2023-11-21T09:40:53;13.00;73.30
38223;DHT22;24024;51.186;6.458;2023-11-21T09:43:21;13.10;73.40
38223;DHT22;24024;51.186;6.458;2023-11-21T09:45:59;13.10;73.20
38223;DHT22;24024;51.186;6.458;2023-11-21T09:48:29;13.10;73.00
38223;DHT22;24024;51.186;6.458;2023-11-21T09:50:59;13.10;73.20
38223;DHT22;24024;51.186;6.458;2023-11-21T09:53:28;13.00;73.40
38223;DHT22;24024;51.186;6.458;2023-11-21T09:55:59;12.70;74.00
38223;DHT22;24024;51.186;6.458;2023-11-21T09:58:29;12.60;74.40
38223;DHT22;24024;51.186;6.458;2023-11-21T10:01:01;12.70;74.40
38223;DHT22;24024;51.186;6.458;2023-11-21T10:03:29;12.90;74.10
38223;DHT22;24024;51.186;6.458;2023-11-21T10:06:00;12.90;73.70
38223;DHT22;24024;51.186;6.458;2023-11-21T10:08:30;13.00;73.70
38223;DHT22;24024;51.186;6.458;2023-11-21T10:11:17;13.10;73.80
38223;DHT22;24024;51.186;6.458;2023-11-21T10:13:46;13.10;73.60
38223;DHT22;24024;51.186;6.458;2023-11-21T10:16:16;13.20;73.40
38223;DHT22;24024;51.186;6.458;2023-11-21T10:18:49;13.30;73.30
38223;DHT22;24024;51.186;6.458;2023-11-21T10:21:19;13.30;73.20
38223;DHT22;24024;51.186;6.458;2023-11-21T10:23:47;13.40;73.00
38223;DHT22;24024;51.186;6.458;2023-11-21T10:26:14;13.50;72.80
38223;DHT22;24024;51.186;6.458;2023-11-21T10:29:03;13.50;72.70
38223;DHT22;24024;51.186;6.458;2023-11-21T10:31:33;13.50;72.80
38223;DHT22;24024;51.186;6.458;2023-11-21T10:34:18;13.50;72.50
38223;DHT22;24024;51.186;6.458;2023-11-21T10:36:46;13.50;72.40
38223;DHT22;24024;51.186;6.458;2023-11-21T10:39:22;13.50;72.60
38223;DHT22;24024;51.186;6.458;2023-11-21T10:41:50;13.50;72.60
38223;DHT22;24024;51.186;6.458;2023-11-21T10:44:18;13.50;72.50
38223;DHT22;24024;51.186;6.458;2023-11-21T10:47:00;13.60;72.40
38223;DHT22;24024;51.186;6.458;2023-11-21T10:49:30;13.50;72.80
38223;DHT22;24024;51.186;6.458;2023-11-21T10:51:59;13.40;73.20
38223;DHT22;24024;51.186;6.458;2023-11-21T10:54:30;13.30;73.30
38223;DHT22;24024;51.186;6.458;2023-11-21T10:56:59;13.30;73.50
38223;DHT22;24024;51.186;6.458;2023-11-21T10:59:29;13.30;73.50
38223;DHT22;24024;51.186;6.458;2023-11-21T11:02:00;13.30;73.40
38223;DHT22;24024;51.186;6.458;2023-11-21T11:04:30;13.40;73.30
38223;DHT22;24024;51.186;6.458;2023-11-21T11:07:02;13.40;73.30
38223;DHT22;24024;51.186;6.458;2023-11-21T11:09:32;13.50;73.40
38223;DHT22;24024;51.186;6.458;2023-11-21T11:12:03;13.50;73.30
38223;DHT22;24024;51.186;6.458;2023-11-21T11:14:33;13.50;73.30
38223;DHT22;24024;51.186;6.458;2023-11-21T11:17:03;13.60;73.30
38223;DHT22;24024;51.186;6.458;2023-11-21T11:19:35;13.60;73.30
38223;DHT22;24024;51.186;6.458;2023-11-21T11:25:19;13.60;73.50
38223;DHT22;24024;51.186;6.458;2023-11-21T11:30:45;13.60;72.90
38223;DHT22;24024;51.186;6.458;2023-11-21T11:36:03;13.70;72.90
38223;DHT22;24024;51.186;6.458;2023-11-21T11:38:32;13.60;73.00
38223;DHT22;24024;51.186;6.458;2023-11-21T11:41:02;13.60;73.00
38223;DHT22;24024;51.186;6.458;2023-11-21T11:43:31;13.70;73.20
38223;DHT22;24024;51.186;6.458;2023-11-21T11:46:03;13.70;73.10
38223;DHT22;24024;51.186;6.458;2023-11-21T11:48:37;13.70;73.10
38223;DHT22;24024;51.186;6.458;2023-11-21T11:51:13;13.70;73.10
38223;DHT22;24024;51.186;6.458;2023-11-21T11:53:51;13.60;73.10
38223;DHT22;24024;51.186;6.458;2023-11-21T11:56:33;13.70;73.30
38223;DHT22;24024;51.186;6.458;2023-11-21T11:59:04;13.70;73.40
38223;DHT22;24024;51.186;6.458;2023-11-21T12:01:33;13.80;73.20
38223;DHT22;24024;51.186;6.458;2023-11-21T12:06:46;13.80;73.10
38223;DHT22;24024;51.186;6.458;2023-11-21T12:09:20;13.80;73.00
38223;DHT22;24024;51.186;6.458;2023-11-21T12:11:51;13.80;72.90
38223;DHT22;24024;51.186;6.458;2023-11-21T12:14:18;13.70;73.10
38223;DHT22;24024;51.186;6.458;2023-11-21T12:16:45;13.80;72.90
38223;DHT22;24024;51.186;6.458;2023-11-21T12:19:14;13.90;72.80
38223;DHT22;24024;51.186;6.458;2023-11-21T12:21:41;13.90;72.70
38223;DHT22;24024;51.186;6.458;2023-11-21T12:24:08;14.00;72.40
38223;DHT22;24024;51.186;6.458;2023-11-21T12:26:35;14.00;72.20
38223;DHT22;24024;51.186;6.458;2023-11-21T12:29:08;14.10;72.00
38223;DHT22;24024;51.186;6.458;2023-11-21T12:31:35;14.10;72.10
38223;DHT22;24024;51.186;6.458;2023-11-21T12:34:03;14.10;72.00
38223;DHT22;24024;51.186;6.458;2023-11-21T12:36:31;14.10;71.90
38223;DHT22;24024;51.186;6.458;2023-11-21T12:39:03;14.10;72.00
38223;DHT22;24024;51.186;6.458;2023-11-21T12:41:30;14.10;71.90
38223;DHT22;24024;51.186;6.458;2023-11-21T12:43:57;14.00;72.20
38223;DHT22;24024;51.186;6.458;2023-11-21T12:46:25;14.00;72.10
38223;DHT22;24024;51.186;6.458;2023-11-21T12:48:56;14.00;72.20
38223;DHT22;24024;51.186;6.458;2023-11-21T12:51:25;14.10;72.10
38223;DHT22;24024;51.186;6.458;2023-11-21T12:53:51;14.00;72.10
38223;DHT22;24024;51.186;6.458;2023-11-21T12:56:21;14.00;72.20
38223;DHT22;24024;51.186;6.458;2023-11-21T12:58:49;13.90;72.50
38223;DHT22;24024;51.186;6.458;2023-11-21T13:01:18;13.90;72.30
38223;DHT22;24024;51.186;6.458;2023-11-21T13:03:49;13.90;72.40
38223;DHT22;24024;51.186;6.458;2023-11-21T13:06:18;13.80;72.70
38223;DHT22;24024;51.186;6.458;2023-11-21T13:08:46;13.80;73.00
38223;DHT22;24024;51.186;6.458;2023-11-21T13:11:13;13.70;73.20
38223;DHT22;24024;51.186;6.458;2023-11-21T13:13:44;13.60;73.20
38223;DHT22;24024;51.186;6.458;2023-11-21T13:16:11;13.70;73.30
38223;DHT22;24024;51.186;6.458;2023-11-21T13:18:39;13.50;73.70
38223;DHT22;24024;51.186;6.458;2023-11-21T13:21:09;13.50;73.80
38223;DHT22;24024;51.186;6.458;2023-11-21T13:23:44;13.50;73.80
38223;DHT22;24024;51.186;6.458;2023-11-21T13:26:17;13.40;73.90
38223;DHT22;24024;51.186;6.458;2023-11-21T13:28:47;13.40;74.00
38223;DHT22;24024;51.186;6.458;2023-11-21T13:31:16;13.40;74.10
38223;DHT22;24024;51.186;6.458;2023-11-21T13:33:53;13.50;73.90
38223;DHT22;24024;51.186;6.458;2023-11-21T13:36:25;13.60;73.50
38223;DHT22;24024;51.186;6.458;2023-11-21T13:38:59;13.80;73.00
38223;DHT22;24024;51.186;6.458;2023-11-21T13:41:30;13.90;72.70
38223;DHT22;24024;51.186;6.458;2023-11-21T13:43:58;14.00;72.50
38223;DHT22;24024;51.186;6.458;2023-11-21T13:46:53;13.90;72.60
38223;DHT22;24024;51.186;6.458;2023-11-21T13:49:26;13.70;73.30
38223;DHT22;24024;51.186;6.458;2023-11-21T13:51:56;13.70;73.20
38223;DHT22;24024;51.186;6.458;2023-11-21T13:54:23;13.70;73.50
38223;DHT22;24024;51.186;6.458;2023-11-21T13:56:51;13.60;73.70
38223;DHT22;24024;51.186;6.458;2023-11-21T13:59:20;13.60;73.80
38223;DHT22;24024;51.186;6.458;2023-11-21T14:01:52;13.60;73.90
38223;DHT22;24024;51.186;6.458;2023-11-21T14:04:19;13.70;73.90
38223;DHT22;24024;51.186;6.458;2023-11-21T14:06:52;13.70;73.70
38223;DHT22;24024;51.186;6.458;2023-11-21T14:09:22;13.80;73.50
38223;DHT22;24024;51.186;6.458;2023-11-21T14:11:53;13.70;73.20
38223;DHT22;24024;51.186;6.458;2023-11-21T14:14:27;13.80;73.30
38223;DHT22;24024;51.186;6.458;2023-11-21T14:16:57;13.60;73.70
38223;DHT22;24024;51.186;6.458;2023-11-21T14:19:25;13.60;73.80
38223;DHT22;24024;51.186;6.458;2023-11-21T14:21:59;13.40;74.20
38223;DHT22;24024;51.186;6.458;2023-11-21T14:24:26;13.30;74.50
38223;DHT22;24024;51.186;6.458;2023-11-21T14:26:53;13.40;74.40
38223;DHT22;24024;51.186;6.458;2023-11-21T14:29:21;13.50;74.10
38223;DHT22;24024;51.186;6.458;2023-11-21T14:31:52;13.60;74.00
38223;DHT22;24024;51.186;6.458;2023-11-21T14:34:25;13.80;73.60
38223;DHT22;24024;51.186;6.458;2023-11-21T14:36:53;13.80;73.40
38223;DHT22;24024;51.186;6.458;2023-11-21T14:39:20;13.60;73.70
38223;DHT22;24024;51.186;6.458;2023-11-21T14:41:51;13.70;73.70
38223;DHT22;24024;51.186;6.458;2023-11-21T14:44:22;13.70;73.50
38223;DHT22;24024;51.186;6.458;2023-11-21T14:46:54;13.70;73.60
38223;DHT22;24024;51.186;6.458;2023-11-21T14:49:27;13.80;73.60
38223;DHT22;24024;51.186;6.458;2023-11-21T14:52:06;13.80;73.50
38223;DHT22;24024;51.186;6.458;2023-11-21T14:54:53;13.70;73.90
38223;DHT22;24024;51.186;6.458;2023-11-21T14:57:40;13.60;74.20
38223;DHT22;24024;51.186;6.458;2023-11-21T15:00:07;13.70;74.00
38223;DHT22;24024;51.186;6.458;2023-11-21T15:02:54;13.80;73.70
38223;DHT22;24024;51.186;6.458;2023-11-21T15:05:20;13.90;73.30
38223;DHT22;24024;51.186;6.458;2023-11-21T15:07:49;13.60;74.10
38223;DHT22;24024;51.186;6.458;2023-11-21T15:10:16;13.60;74.40
38223;DHT22;24024;51.186;6.458;2023-11-21T15:12:48;13.70;74.40
38223;DHT22;24024;51.186;6.458;2023-11-21T15:15:17;13.80;74.20
38223;DHT22;24024;51.186;6.458;2023-11-21T15:17:45;13.80;74.40
38223;DHT22;24024;51.186;6.458;2023-11-21T15:20:14;13.70;74.60
38223;DHT22;24024;51.186;6.458;2023-11-21T15:22:46;13.80;74.50
38223;DHT22;24024;51.186;6.458;2023-11-21T15:25:13;13.90;74.30
38223;DHT22;24024;51.186;6.458;2023-11-21T15:27:40;13.90;74.20
38223;DHT22;24024;51.186;6.458;2023-11-21T15:30:09;13.80;74.40
38223;DHT22;24024;51.186;6.458;2023-11-21T15:32:36;13.70;74.20
38223;DHT22;24024;51.186;6.458;2023-11-21T15:35:03;13.80;74.30
38223;DHT22;24024;51.186;6.458;2023-11-21T15:37:30;13.90;74.10
38223;DHT22;24024;51.186;6.458;2023-11-21T15:39:59;14.00;73.90
38223;DHT22;24024;51.186;6.458;2023-11-21T15:42:28;14.00;73.50
38223;DHT22;24024;51.186;6.458;2023-11-21T15:44:59;14.00;73.60
38223;DHT22;24024;51.186;6.458;2023-11-21T15:47:26;14.00;73.50
38223;DHT22;24024;51.186;6.458;2023-11-21T15:49:53;13.90;73.50
38223;DHT22;24024;51.186;6.458;2023-11-21T15:52:22;13.80;73.80
38223;DHT22;24024;51.186;6.458;2023-11-21T15:54:51;13.70;74.00